Decoded Metar for KEDE (EDENTON in NC, USA) (IATA:EDE) | Meteo·Mobile Aviation Weather
aviador You're here:

KEDE Decoded Metar

EDENTON in NC, USA
Report Time2019-02-16 17:40:00
UTC Time2019-02-16 18:09:52
Flight Rules vfr VFR
Wind030° at 10 Gusting to 18 kt
W.Decomp.*RWY 01: 8.7 kt HW 5.0 kt RCW
W.Rank030° ranks 10
Current wind is above 030° avg. (6.3)
Visibility9999 m
Phenomena:N/A
Clouds:Overcast 032 Hf
Expected CloudBase > 800 ft AGL from Temp-Dew spread
Ceiling3,200 ft
Temp05°C (ISA -10)
Dew Point03°C (87% RH)
AAT-0.1°C
QNH1010 hPa
Density Alt-978 ft
Elevation20 ft
Report Wrong Elevation
Raw Report
METAR KEDE 161740Z AUTO 03010G18KT 10SM OVC032 05/03 A2983 RMK AO2
P0001 T00490031=

Extra information for KEDE:More info

Metar Taf Metar & Taf Last 4 Metars F.Rules Stats Wind Profile Meteogram Temp Stats Airport Information Weather charts Add Link Nearby VenuesMetar ALERT Operation Metar Decoded Social comments

AIRNAV info for KEDE